createdAt,value
2022-10-12T00:00:31.231Z,1024.01
2022-10-12T00:01:35.639Z,1024.03
2022-10-12T00:02:39.887Z,1024.05
2022-10-12T00:03:44.096Z,1024.04
2022-10-12T00:04:48.435Z,1024.05
2022-10-12T00:05:52.752Z,1024.04
2022-10-12T00:06:57.070Z,1024.05
2022-10-12T00:08:01.466Z,1024.02
2022-10-12T00:09:05.720Z,1024.03
2022-10-12T00:10:10.056Z,1024.04
2022-10-12T00:11:14.244Z,1024.04
2022-10-12T00:12:18.581Z,1024.05
2022-10-12T00:13:22.904Z,1024.05
2022-10-12T00:14:27.202Z,1024.04
2022-10-12T00:15:31.500Z,1024.03
2022-10-12T00:16:35.720Z,1024.02
2022-10-12T00:17:40.431Z,1024.04
2022-10-12T00:18:44.371Z,1024.03
2022-10-12T00:19:48.638Z,1024.05
2022-10-12T00:20:52.951Z,1024.04
2022-10-12T00:21:57.152Z,1024.05
2022-10-12T00:23:01.478Z,1024.04
2022-10-12T00:24:05.682Z,1024.05
2022-10-12T00:25:09.994Z,1024.04
2022-10-12T00:26:14.287Z,1024.05
2022-10-12T00:27:18.676Z,1024.03
2022-10-12T00:28:22.893Z,1024.03
2022-10-12T00:29:27.189Z,1024.01
2022-10-12T00:30:31.466Z,1024.00
2022-10-12T00:31:35.690Z,1024.00
2022-10-12T00:32:40.053Z,1024.00
2022-10-12T00:33:44.314Z,1023.99
2022-10-12T00:34:48.669Z,1023.97
2022-10-12T00:35:52.945Z,1023.97
2022-10-12T00:36:57.244Z,1023.98
2022-10-12T00:38:01.547Z,1023.97
2022-10-12T00:39:05.828Z,1023.98
2022-10-12T00:40:09.927Z,1023.99
2022-10-12T00:41:14.308Z,1023.96
2022-10-12T00:42:18.707Z,1023.96
2022-10-12T00:43:22.983Z,1023.95
2022-10-12T00:44:27.165Z,1023.97
2022-10-12T00:45:31.512Z,1023.92
2022-10-12T00:46:35.788Z,1023.94
2022-10-12T00:47:40.439Z,1023.92
2022-10-12T00:48:44.344Z,1023.94
2022-10-12T00:49:48.760Z,1023.96
2022-10-12T00:50:53.056Z,1023.96
2022-10-12T00:51:57.258Z,1023.96
2022-10-12T00:53:01.547Z,1023.94
2022-10-12T00:54:05.875Z,1023.95
2022-10-12T00:55:10.082Z,1023.98
2022-10-12T00:56:14.542Z,1023.96
2022-10-12T00:57:18.804Z,1023.95
2022-10-12T00:58:23.061Z,1023.97
2022-10-12T00:59:27.458Z,1023.97
2022-10-12T01:00:31.598Z,1023.96
2022-10-12T01:01:35.882Z,1023.97
2022-10-12T01:02:40.100Z,1023.97
2022-10-12T01:03:44.455Z,1023.97
2022-10-12T01:04:48.739Z,1023.96
2022-10-12T01:05:53.055Z,1023.95
2022-10-12T01:06:57.351Z,1023.97
2022-10-12T01:08:01.577Z,1023.97
2022-10-12T01:09:05.917Z,1023.99
2022-10-12T01:10:10.147Z,1023.98
2022-10-12T01:11:14.401Z,1023.97
2022-10-12T01:12:18.711Z,1024.00
2022-10-12T01:13:23.010Z,1024.02
2022-10-12T01:14:27.301Z,1024.02
2022-10-12T01:15:31.669Z,1024.03
2022-10-12T01:16:35.864Z,1024.03
2022-10-12T01:17:40.362Z,1024.05
2022-10-12T01:18:44.330Z,1024.07
2022-10-12T01:19:48.597Z,1024.08
2022-10-12T01:20:52.913Z,1024.09
2022-10-12T01:21:57.194Z,1024.09
2022-10-12T01:23:01.441Z,1024.10
2022-10-12T01:24:05.661Z,1024.10
2022-10-12T01:25:09.989Z,1024.11
2022-10-12T01:26:14.248Z,1024.13
2022-10-12T01:27:18.531Z,1024.11
2022-10-12T01:28:22.838Z,1024.14
2022-10-12T01:29:27.081Z,1024.11
2022-10-12T01:30:31.225Z,1024.12
2022-10-12T01:31:35.605Z,1024.09
2022-10-12T01:32:39.877Z,1024.09
2022-10-12T01:33:44.189Z,1024.08
2022-10-12T01:34:48.392Z,1024.08
2022-10-12T01:35:52.706Z,1024.07
2022-10-12T01:36:56.946Z,1024.07
2022-10-12T01:38:01.250Z,1024.05
2022-10-12T01:39:05.663Z,1024.07
2022-10-12T01:40:09.875Z,1024.06
2022-10-12T01:41:14.164Z,1024.06
2022-10-12T01:42:18.458Z,1024.06
2022-10-12T01:43:22.737Z,1024.07
2022-10-12T01:44:26.951Z,1024.05
2022-10-12T01:45:31.295Z,1024.05
2022-10-12T01:46:35.566Z,1024.04
2022-10-12T01:47:40.242Z,1024.04
2022-10-12T01:48:44.046Z,1024.02
2022-10-12T01:49:48.276Z,1024.02
2022-10-12T01:50:52.622Z,1024.03
2022-10-12T01:51:56.861Z,1024.02
2022-10-12T01:53:01.171Z,1024.03
2022-10-12T01:54:05.447Z,1024.02
2022-10-12T01:55:09.760Z,1024.01
2022-10-12T01:56:14.019Z,1023.99
2022-10-12T01:57:18.231Z,1023.98
2022-10-12T01:58:22.432Z,1023.99
2022-10-12T01:59:26.879Z,1024.01
2022-10-12T02:00:31.200Z,1024.01
2022-10-12T02:01:35.504Z,1023.98
2022-10-12T02:02:39.697Z,1023.96
2022-10-12T02:03:43.860Z,1023.95
2022-10-12T02:04:48.241Z,1023.97
2022-10-12T02:05:52.535Z,1024.01
2022-10-12T02:06:56.808Z,1023.99
2022-10-12T02:08:01.110Z,1023.98
2022-10-12T02:09:05.389Z,1023.97
2022-10-12T02:10:09.640Z,1023.97
2022-10-12T02:11:14.012Z,1024.03
2022-10-12T02:12:18.227Z,1024.05
2022-10-12T02:13:22.511Z,1024.03
2022-10-12T02:14:26.800Z,1024.03
2022-10-12T02:15:31.083Z,1023.99
2022-10-12T02:16:35.366Z,1023.99
2022-10-12T02:17:39.793Z,1023.96
2022-10-12T02:18:43.839Z,1023.94
2022-10-12T02:19:48.158Z,1023.92
2022-10-12T02:20:52.341Z,1023.93
2022-10-12T02:21:56.679Z,1023.91
2022-10-12T02:23:00.899Z,1023.92
2022-10-12T02:24:05.203Z,1023.92
2022-10-12T02:25:09.477Z,1023.91
2022-10-12T02:26:13.758Z,1023.88
2022-10-12T02:27:18.057Z,1023.87
2022-10-12T02:28:22.296Z,1023.87
2022-10-12T02:29:26.543Z,1023.89
2022-10-12T02:30:30.812Z,1023.91
2022-10-12T02:31:34.943Z,1023.90
2022-10-12T02:32:39.275Z,1023.89
2022-10-12T02:33:43.553Z,1023.90
2022-10-12T02:34:47.823Z,1023.87
2022-10-12T02:35:52.071Z,1023.87
2022-10-12T02:36:56.337Z,1023.89
2022-10-12T02:38:00.622Z,1023.90
2022-10-12T02:39:10.845Z,1023.91
2022-10-12T02:40:13.723Z,1023.90
2022-10-12T02:41:17.966Z,1023.89
2022-10-12T02:42:22.241Z,1023.88
2022-10-12T02:43:26.431Z,1023.85
2022-10-12T02:44:30.735Z,1023.85
2022-10-12T02:45:41.042Z,1023.85
2022-10-12T02:46:43.900Z,1023.84
2022-10-12T02:47:48.060Z,1023.84
2022-10-12T02:48:52.295Z,1023.82
2022-10-12T02:49:56.597Z,1023.81
2022-10-12T02:51:00.888Z,1023.82
2022-10-12T02:52:05.026Z,1023.81
2022-10-12T02:53:09.330Z,1023.84
2022-10-12T02:54:13.601Z,1023.83
2022-10-12T02:55:17.877Z,1023.84
2022-10-12T02:56:21.966Z,1023.84
2022-10-12T02:57:26.410Z,1023.82
2022-10-12T02:58:30.659Z,1023.84
2022-10-12T02:59:34.950Z,1023.83
2022-10-12T03:00:39.105Z,1023.86
2022-10-12T03:01:43.473Z,1023.87
2022-10-12T03:02:47.668Z,1023.88
2022-10-12T03:03:51.786Z,1023.86
2022-10-12T03:04:56.063Z,1023.89
2022-10-12T03:06:00.404Z,1023.90
2022-10-12T03:07:04.576Z,1023.88
2022-10-12T03:08:08.890Z,1023.87
2022-10-12T03:09:13.011Z,1023.90
2022-10-12T03:10:17.361Z,1023.88
2022-10-12T03:11:21.625Z,1023.87
2022-10-12T03:12:25.705Z,1023.86
2022-10-12T03:13:30.086Z,1023.85
2022-10-12T03:14:34.143Z,1023.82
2022-10-12T03:15:38.509Z,1023.83
2022-10-12T03:16:42.599Z,1023.82
2022-10-12T03:17:46.921Z,1023.83
2022-10-12T03:18:51.211Z,1023.84
2022-10-12T03:19:55.446Z,1023.84
2022-10-12T03:20:59.683Z,1023.82
2022-10-12T03:22:03.967Z,1023.78
2022-10-12T03:23:08.202Z,1023.75
2022-10-12T03:24:12.457Z,1023.74
2022-10-12T03:25:16.641Z,1023.76
2022-10-12T03:26:20.856Z,1023.76
2022-10-12T03:27:25.292Z,1023.77
2022-10-12T03:28:29.567Z,1023.77
2022-10-12T03:29:33.907Z,1023.76
2022-10-12T03:30:38.007Z,1023.77
2022-10-12T03:31:42.313Z,1023.79
2022-10-12T03:32:46.634Z,1023.81
2022-10-12T03:33:50.881Z,1023.82
2022-10-12T03:34:55.153Z,1023.84
2022-10-12T03:35:59.322Z,1023.84
2022-10-12T03:37:03.628Z,1023.83
2022-10-12T03:38:07.803Z,1023.82
2022-10-12T03:39:11.954Z,1023.82
2022-10-12T03:40:16.320Z,1023.78
2022-10-12T03:41:20.643Z,1023.78
2022-10-12T03:42:24.897Z,1023.80
2022-10-12T03:43:29.089Z,1023.82
2022-10-12T03:44:33.376Z,1023.82
2022-10-12T03:45:37.692Z,1023.82
2022-10-12T03:46:41.858Z,1023.81
2022-10-12T03:47:46.032Z,1023.82
2022-10-12T03:48:50.199Z,1023.81
2022-10-12T03:49:54.576Z,1023.83
2022-10-12T03:50:58.776Z,1023.84
2022-10-12T03:52:03.028Z,1023.85
2022-10-12T03:53:07.360Z,1023.87
2022-10-12T03:54:11.683Z,1023.90
2022-10-12T03:55:15.938Z,1023.89
2022-10-12T03:56:20.057Z,1023.93
2022-10-12T03:57:24.425Z,1023.95
2022-10-12T03:58:28.588Z,1023.96
2022-10-12T03:59:32.897Z,1023.95
2022-10-12T04:00:37.159Z,1023.93
2022-10-12T04:01:41.539Z,1023.92
2022-10-12T04:02:45.619Z,1023.91
2022-10-12T04:03:49.806Z,1023.93
2022-10-12T04:04:54.248Z,1023.92
2022-10-12T04:05:58.372Z,1023.91
2022-10-12T04:07:02.604Z,1023.89
2022-10-12T04:08:06.814Z,1023.89
2022-10-12T04:09:11.042Z,1023.90
2022-10-12T04:10:15.227Z,1023.92
2022-10-12T04:11:19.415Z,1023.92
2022-10-12T04:12:23.849Z,1023.97
2022-10-12T04:13:28.080Z,1023.97
2022-10-12T04:14:32.358Z,1023.97
2022-10-12T04:15:36.533Z,1023.98
2022-10-12T04:16:40.773Z,1023.96
2022-10-12T04:17:45.131Z,1023.94
2022-10-12T04:18:49.294Z,1023.94
2022-10-12T04:19:53.511Z,1023.94
2022-10-12T04:20:57.814Z,1023.94
2022-10-12T04:22:01.892Z,1023.93
2022-10-12T04:23:06.295Z,1023.93
2022-10-12T04:24:10.486Z,1023.94
2022-10-12T04:25:14.820Z,1023.95
2022-10-12T04:26:18.908Z,1023.96
2022-10-12T04:27:23.176Z,1023.99
2022-10-12T04:28:27.562Z,1024.00
2022-10-12T04:29:31.713Z,1024.00
2022-10-12T04:30:35.941Z,1024.01
2022-10-12T04:31:40.171Z,1023.98
2022-10-12T04:32:44.420Z,1023.96
2022-10-12T04:33:48.726Z,1023.94
2022-10-12T04:34:52.869Z,1023.98
2022-10-12T04:35:57.170Z,1024.00
2022-10-12T04:37:01.404Z,1024.01
2022-10-12T04:38:05.716Z,1024.00
2022-10-12T04:39:09.997Z,1023.99
2022-10-12T04:40:14.249Z,1024.02
2022-10-12T04:41:18.484Z,1024.04
2022-10-12T04:42:22.596Z,1024.02
2022-10-12T04:43:26.935Z,1024.04
2022-10-12T04:44:32.346Z,1024.01
2022-10-12T04:45:35.327Z,1024.01
2022-10-12T04:46:39.442Z,1024.00
2022-10-12T04:47:43.807Z,1024.02
2022-10-12T04:48:47.968Z,1024.01
2022-10-12T04:49:52.294Z,1024.03
2022-10-12T04:50:56.457Z,1024.04
2022-10-12T04:52:00.727Z,1024.06
2022-10-12T04:53:04.993Z,1024.05
2022-10-12T04:54:09.239Z,1024.04
2022-10-12T04:55:13.613Z,1024.04
2022-10-12T04:56:17.836Z,1024.03
2022-10-12T04:57:21.994Z,1024.05
2022-10-12T04:58:26.260Z,1024.05
2022-10-12T04:59:30.562Z,1024.07
2022-10-12T05:00:34.817Z,1024.07
2022-10-12T05:01:39.364Z,1024.04
2022-10-12T05:02:43.375Z,1024.03
2022-10-12T05:03:47.467Z,1024.04
2022-10-12T05:04:51.741Z,1024.04
2022-10-12T05:05:55.878Z,1024.04
2022-10-12T05:07:00.221Z,1024.01
2022-10-12T05:08:07.495Z,1023.99
2022-10-12T05:09:14.456Z,1023.99
2022-10-12T05:10:14.909Z,1023.97
2022-10-12T05:11:19.090Z,1023.96
2022-10-12T05:12:23.346Z,1023.96
2022-10-12T05:13:27.815Z,1023.95
2022-10-12T05:14:35.057Z,1023.95
2022-10-12T05:15:36.260Z,1023.95
2022-10-12T05:16:41.365Z,1023.98
2022-10-12T05:17:45.332Z,1023.97
2022-10-12T05:18:49.419Z,1023.97
2022-10-12T05:19:53.921Z,1023.97
2022-10-12T05:20:58.242Z,1024.00
2022-10-12T05:22:02.438Z,1024.00
2022-10-12T05:23:06.622Z,1024.01
2022-10-12T05:24:11.041Z,1024.00
2022-10-12T05:25:15.322Z,1023.99
2022-10-12T05:26:19.497Z,1023.97
2022-10-12T05:27:23.713Z,1023.97
2022-10-12T05:28:27.885Z,1023.96
2022-10-12T05:29:32.341Z,1023.97
2022-10-12T05:30:36.544Z,1023.97
2022-10-12T05:31:40.662Z,1023.95
2022-10-12T05:32:44.996Z,1023.97
2022-10-12T05:33:49.270Z,1023.98
2022-10-12T05:34:53.453Z,1023.97
2022-10-12T05:35:57.851Z,1023.97
2022-10-12T05:37:02.124Z,1023.99
2022-10-12T05:38:06.371Z,1024.01
2022-10-12T05:39:10.413Z,1024.03
2022-10-12T05:40:14.797Z,1024.01
2022-10-12T05:41:19.075Z,1024.02
2022-10-12T05:42:23.238Z,1024.03
2022-10-12T05:43:27.463Z,1024.01
2022-10-12T05:44:31.683Z,1024.03
2022-10-12T05:45:36.029Z,1024.07
2022-10-12T05:46:40.227Z,1024.05
2022-10-12T05:47:44.579Z,1024.06
2022-10-12T05:48:48.689Z,1024.07
2022-10-12T05:49:53.137Z,1024.05
2022-10-12T05:50:57.165Z,1024.05
2022-10-12T05:52:01.537Z,1024.06
2022-10-12T05:53:05.862Z,1024.07
2022-10-12T05:54:10.088Z,1024.09
2022-10-12T05:55:14.378Z,1024.11
2022-10-12T05:56:18.668Z,1024.11
2022-10-12T05:57:22.743Z,1024.10
2022-10-12T05:58:27.097Z,1024.09
2022-10-12T05:59:31.331Z,1024.08
2022-10-12T06:00:35.588Z,1024.11
2022-10-12T06:01:39.907Z,1024.12
2022-10-12T06:02:44.130Z,1024.11
2022-10-12T06:03:48.295Z,1024.08
2022-10-12T06:04:52.665Z,1024.09
2022-10-12T06:05:56.971Z,1024.08
2022-10-12T06:07:01.250Z,1024.09
2022-10-12T06:08:05.429Z,1024.08
2022-10-12T06:09:09.797Z,1024.09
2022-10-12T06:10:13.951Z,1024.09
2022-10-12T06:11:18.110Z,1024.12
2022-10-12T06:12:22.523Z,1024.13
2022-10-12T06:13:26.556Z,1024.13
2022-10-12T06:14:30.923Z,1024.16
2022-10-12T06:15:35.154Z,1024.15
2022-10-12T06:16:39.480Z,1024.14
2022-10-12T06:17:43.735Z,1024.14
2022-10-12T06:18:48.024Z,1024.17
2022-10-12T06:19:52.401Z,1024.17
2022-10-12T06:22:00.660Z,1024.14
2022-10-12T06:23:05.039Z,1024.13
2022-10-12T06:24:09.411Z,1024.13
2022-10-12T06:25:13.554Z,1024.16
2022-10-12T06:26:17.764Z,1024.15
2022-10-12T06:27:22.166Z,1024.18
2022-10-12T06:28:26.350Z,1024.19
2022-10-12T06:29:30.704Z,1024.20
2022-10-12T06:30:34.931Z,1024.18
2022-10-12T06:31:39.332Z,1024.19
2022-10-12T06:32:43.652Z,1024.19
2022-10-12T06:33:47.877Z,1024.19
2022-10-12T06:34:52.130Z,1024.21
2022-10-12T06:35:56.432Z,1024.19
2022-10-12T06:37:02.007Z,1024.18
2022-10-12T06:38:04.934Z,1024.19
2022-10-12T06:39:09.229Z,1024.19
2022-10-12T06:40:13.538Z,1024.18
2022-10-12T06:41:17.938Z,1024.15
2022-10-12T06:42:22.229Z,1024.15
2022-10-12T06:43:26.505Z,1024.14
2022-10-12T06:44:30.748Z,1024.16
2022-10-12T06:45:35.008Z,1024.17
2022-10-12T06:46:39.340Z,1024.17
2022-10-12T06:47:43.573Z,1024.17
2022-10-12T06:48:47.798Z,1024.18
2022-10-12T06:49:51.874Z,1024.19
2022-10-12T06:50:56.281Z,1024.20
2022-10-12T06:52:00.464Z,1024.20
2022-10-12T06:53:04.886Z,1024.19
2022-10-12T06:54:09.020Z,1024.18
2022-10-12T06:55:13.412Z,1024.15
2022-10-12T06:56:17.746Z,1024.14
2022-10-12T06:57:22.011Z,1024.15
2022-10-12T06:58:26.371Z,1024.16
2022-10-12T06:59:30.566Z,1024.17
2022-10-12T07:00:34.649Z,1024.18
2022-10-12T07:01:39.115Z,1024.17
2022-10-12T07:02:43.315Z,1024.19
2022-10-12T07:03:47.701Z,1024.20
2022-10-12T07:04:52.014Z,1024.21
2022-10-12T07:05:56.257Z,1024.22
2022-10-12T07:07:00.445Z,1024.23
2022-10-12T07:08:04.797Z,1024.24
2022-10-12T07:09:09.086Z,1024.23
2022-10-12T07:10:13.169Z,1024.22
2022-10-12T07:11:17.655Z,1024.23
2022-10-12T07:12:21.709Z,1024.22
2022-10-12T07:13:26.006Z,1024.23
2022-10-12T07:14:30.308Z,1024.23
2022-10-12T07:15:34.464Z,1024.22
2022-10-12T07:16:38.583Z,1024.21
2022-10-12T07:17:42.807Z,1024.21
2022-10-12T07:18:47.126Z,1024.20
2022-10-12T07:19:51.434Z,1024.19
2022-10-12T07:20:55.729Z,1024.21
2022-10-12T07:21:59.987Z,1024.23
2022-10-12T07:23:04.277Z,1024.20
2022-10-12T07:24:08.452Z,1024.21
2022-10-12T07:25:12.837Z,1024.21
2022-10-12T07:26:17.125Z,1024.21
2022-10-12T07:27:21.343Z,1024.18
2022-10-12T07:28:25.569Z,1024.20
2022-10-12T07:29:29.877Z,1024.21
2022-10-12T07:30:34.166Z,1024.20
2022-10-12T07:31:38.486Z,1024.22
2022-10-12T07:32:42.795Z,1024.20
2022-10-12T07:33:46.976Z,1024.23
2022-10-12T07:34:51.398Z,1024.26
2022-10-12T07:36:14.210Z,1024.23
2022-10-12T07:37:00.099Z,1024.20
2022-10-12T07:38:04.100Z,1024.23
2022-10-12T07:39:08.514Z,1024.20
2022-10-12T07:40:12.621Z,1024.18
2022-10-12T07:41:16.954Z,1024.21
2022-10-12T07:42:21.179Z,1024.20
2022-10-12T07:43:25.536Z,1024.23
2022-10-12T07:44:29.901Z,1024.21
2022-10-12T07:45:34.138Z,1024.23
2022-10-12T07:46:38.432Z,1024.22
2022-10-12T07:47:42.722Z,1024.26
2022-10-12T07:48:50.198Z,1024.24
2022-10-12T07:49:51.416Z,1024.23
2022-10-12T07:50:55.693Z,1024.23
2022-10-12T07:51:59.990Z,1024.24
2022-10-12T07:53:04.299Z,1024.24
2022-10-12T07:54:08.684Z,1024.24
2022-10-12T07:55:12.755Z,1024.23
2022-10-12T07:56:16.981Z,1024.21
2022-10-12T07:57:21.378Z,1024.22
2022-10-12T07:58:25.762Z,1024.22
2022-10-12T07:59:29.999Z,1024.23
2022-10-12T08:00:34.379Z,1024.22
2022-10-12T08:01:38.892Z,1024.21
2022-10-12T08:02:43.090Z,1024.24
2022-10-12T08:03:47.458Z,1024.24
2022-10-12T08:04:51.813Z,1024.23
2022-10-12T08:05:56.054Z,1024.21
2022-10-12T08:07:00.405Z,1024.19
2022-10-12T08:08:04.788Z,1024.18
2022-10-12T08:09:09.075Z,1024.17
2022-10-12T08:10:13.367Z,1024.18
2022-10-12T08:11:17.689Z,1024.19
2022-10-12T08:12:21.962Z,1024.21
2022-10-12T08:13:26.301Z,1024.20
2022-10-12T08:14:30.590Z,1024.19
2022-10-12T08:15:34.938Z,1024.17
2022-10-12T08:16:39.239Z,1024.17
2022-10-12T08:17:43.615Z,1024.18
2022-10-12T08:18:47.876Z,1024.17
2022-10-12T08:19:52.192Z,1024.17
2022-10-12T08:20:56.576Z,1024.14
2022-10-12T08:22:00.819Z,1024.14
2022-10-12T08:23:05.161Z,1024.15
2022-10-12T08:24:09.452Z,1024.14
2022-10-12T08:25:13.780Z,1024.17
2022-10-12T08:26:18.151Z,1024.17
2022-10-12T08:27:22.508Z,1024.18
2022-10-12T08:28:26.845Z,1024.19
2022-10-12T08:29:31.054Z,1024.20
2022-10-12T08:30:35.396Z,1024.18
2022-10-12T08:31:39.619Z,1024.19
2022-10-12T08:32:43.974Z,1024.17
2022-10-12T08:33:48.208Z,1024.16
2022-10-12T08:34:52.637Z,1024.16
2022-10-12T08:35:56.991Z,1024.16
2022-10-12T08:37:01.285Z,1024.17
2022-10-12T08:38:05.566Z,1024.19
2022-10-12T08:39:09.871Z,1024.22
2022-10-12T08:40:14.202Z,1024.20
2022-10-12T08:41:18.406Z,1024.21
2022-10-12T08:42:22.751Z,1024.21
2022-10-12T08:43:27.067Z,1024.21
2022-10-12T08:44:31.219Z,1024.26
2022-10-12T08:45:35.684Z,1024.28
2022-10-12T08:46:39.974Z,1024.28
2022-10-12T08:47:44.291Z,1024.27
2022-10-12T08:48:48.622Z,1024.27
2022-10-12T08:49:53.050Z,1024.23
2022-10-12T08:52:01.432Z,1024.19
2022-10-12T08:53:05.779Z,1024.18
2022-10-12T08:54:10.159Z,1024.18
2022-10-12T08:55:14.434Z,1024.19
2022-10-12T08:56:18.739Z,1024.20
2022-10-12T08:57:23.041Z,1024.20
2022-10-12T08:58:27.448Z,1024.19
2022-10-12T08:59:31.737Z,1024.19
2022-10-12T09:00:36.124Z,1024.18
2022-10-12T09:01:40.319Z,1024.17
2022-10-12T09:02:44.613Z,1024.18
2022-10-12T09:03:48.961Z,1024.18
2022-10-12T09:04:53.170Z,1024.15
2022-10-12T09:05:57.452Z,1024.17
2022-10-12T09:07:01.690Z,1024.13
2022-10-12T09:08:06.148Z,1024.11
2022-10-12T09:09:10.434Z,1024.12
2022-10-12T09:10:28.899Z,1024.10
2022-10-12T09:11:32.176Z,1024.09
2022-10-12T09:12:39.734Z,1024.08
2022-10-12T09:13:42.872Z,1024.10
2022-10-12T09:14:47.119Z,1024.14
2022-10-12T09:15:51.451Z,1024.10
2022-10-12T09:16:55.799Z,1024.10
2022-10-12T09:18:00.204Z,1024.09
2022-10-12T09:19:04.588Z,1024.09
2022-10-12T09:20:08.851Z,1024.10
2022-10-12T09:21:13.224Z,1024.12
2022-10-12T09:22:17.478Z,1024.11
2022-10-12T09:23:21.905Z,1024.09
2022-10-12T09:24:26.222Z,1024.10
2022-10-12T09:25:30.532Z,1024.13
2022-10-12T09:26:34.830Z,1024.13
2022-10-12T09:27:43.011Z,1024.14
2022-10-12T09:28:43.475Z,1024.13
2022-10-12T09:29:47.726Z,1024.16
2022-10-12T09:30:54.848Z,1024.16
2022-10-12T09:31:58.178Z,1024.13
2022-10-12T09:33:02.410Z,1024.12
2022-10-12T09:34:06.705Z,1024.11
2022-10-12T09:35:10.970Z,1024.12
2022-10-12T09:36:15.240Z,1024.10
2022-10-12T09:37:19.621Z,1024.09
2022-10-12T09:38:23.826Z,1024.07
2022-10-12T09:39:29.228Z,1024.08
2022-10-12T09:40:32.476Z,1024.10
2022-10-12T09:41:36.679Z,1024.10
2022-10-12T09:42:40.960Z,1024.13
2022-10-12T09:43:45.235Z,1024.08
2022-10-12T09:44:49.494Z,1024.06
2022-10-12T09:45:53.765Z,1024.06
2022-10-12T09:46:58.067Z,1024.05
2022-10-12T09:48:02.319Z,1024.04
2022-10-12T09:49:06.586Z,1024.06
2022-10-12T09:50:10.835Z,1024.04
2022-10-12T09:51:15.197Z,1024.02
2022-10-12T09:52:19.460Z,1024.01
2022-10-12T09:53:23.799Z,1024.00
2022-10-12T09:54:28.051Z,1024.00
2022-10-12T09:55:32.410Z,1024.01
2022-10-12T09:56:36.674Z,1024.03
2022-10-12T09:57:40.935Z,1024.03
2022-10-12T09:58:45.227Z,1024.03
2022-10-12T09:59:49.484Z,1024.01
2022-10-12T10:00:53.773Z,1024.02
2022-10-12T10:02:01.126Z,1024.04
2022-10-12T10:03:04.460Z,1024.05
2022-10-12T10:04:08.737Z,1024.03
2022-10-12T10:05:13.034Z,1024.06
2022-10-12T10:06:17.388Z,1024.04
2022-10-12T10:07:21.630Z,1024.04
2022-10-12T10:08:26.066Z,1024.05
2022-10-12T10:09:30.368Z,1024.02
2022-10-12T10:10:34.586Z,1024.01
2022-10-12T10:11:38.860Z,1024.00
2022-10-12T10:12:43.139Z,1023.98
2022-10-12T10:13:47.415Z,1024.01
2022-10-12T10:14:51.655Z,1024.01
2022-10-12T10:15:55.960Z,1024.01
2022-10-12T10:17:00.235Z,1024.00
2022-10-12T10:18:04.518Z,1023.97
2022-10-12T10:19:08.885Z,1024.00
2022-10-12T10:20:13.227Z,1024.00
2022-10-12T10:21:17.491Z,1024.01
2022-10-12T10:22:21.746Z,1024.00
2022-10-12T10:23:26.055Z,1024.02
2022-10-12T10:24:30.383Z,1023.98
2022-10-12T10:25:34.611Z,1023.98
2022-10-12T10:26:39.006Z,1023.96
2022-10-12T10:27:43.243Z,1023.94
2022-10-12T10:28:47.550Z,1023.93
2022-10-12T10:30:04.692Z,1023.94
2022-10-12T10:30:56.090Z,1023.92
2022-10-12T10:32:00.403Z,1023.91
2022-10-12T10:33:04.686Z,1023.92
2022-10-12T10:34:08.923Z,1023.92
2022-10-12T10:35:13.286Z,1023.90
2022-10-12T10:36:17.612Z,1023.90
2022-10-12T10:37:21.847Z,1023.89
2022-10-12T10:38:26.100Z,1023.88
2022-10-12T10:39:30.467Z,1023.88
2022-10-12T10:40:34.709Z,1023.86
2022-10-12T10:41:39.047Z,1023.86
2022-10-12T10:42:43.360Z,1023.83
2022-10-12T10:43:47.614Z,1023.83
2022-10-12T10:44:51.901Z,1023.84
2022-10-12T10:45:56.327Z,1023.84
2022-10-12T10:47:00.677Z,1023.83
2022-10-12T10:48:04.897Z,1023.81
2022-10-12T10:49:09.186Z,1023.80
2022-10-12T10:50:13.520Z,1023.82
2022-10-12T10:51:17.815Z,1023.82
2022-10-12T10:52:22.059Z,1023.79
2022-10-12T10:53:26.365Z,1023.78
2022-10-12T10:54:30.704Z,1023.77
2022-10-12T10:55:34.967Z,1023.76
2022-10-12T10:56:39.297Z,1023.72
2022-10-12T10:57:43.677Z,1023.75
2022-10-12T10:58:47.928Z,1023.74
2022-10-12T10:59:52.286Z,1023.72
2022-10-12T11:00:56.560Z,1023.72
2022-10-12T11:02:01.004Z,1023.72
2022-10-12T11:03:05.192Z,1023.70
2022-10-12T11:04:09.423Z,1023.70
2022-10-12T11:05:13.998Z,1023.69
2022-10-12T11:06:18.055Z,1023.70
2022-10-12T11:07:22.337Z,1023.66
2022-10-12T11:08:26.803Z,1023.64
2022-10-12T11:09:31.012Z,1023.65
2022-10-12T11:10:35.411Z,1023.62
2022-10-12T11:11:39.723Z,1023.63
2022-10-12T11:12:44.136Z,1023.64
2022-10-12T11:13:48.415Z,1023.62
2022-10-12T11:14:52.657Z,1023.60
2022-10-12T11:15:56.997Z,1023.60
2022-10-12T11:17:01.266Z,1023.61
2022-10-12T11:18:05.651Z,1023.61
2022-10-12T11:19:09.903Z,1023.61
2022-10-12T11:20:18.743Z,1023.61
2022-10-12T11:21:18.417Z,1023.59
2022-10-12T11:22:22.883Z,1023.59
2022-10-12T11:23:27.154Z,1023.59
2022-10-12T11:24:31.390Z,1023.57
2022-10-12T11:25:35.677Z,1023.55
2022-10-12T11:26:40.027Z,1023.53
2022-10-12T11:27:44.367Z,1023.54
2022-10-12T11:28:48.740Z,1023.49
2022-10-12T11:30:02.916Z,1023.50
2022-10-12T11:30:57.206Z,1023.49
2022-10-12T11:32:01.580Z,1023.49
2022-10-12T11:33:05.788Z,1023.49
2022-10-12T11:34:13.415Z,1023.48
2022-10-12T11:35:14.327Z,1023.47
2022-10-12T11:36:18.634Z,1023.44
2022-10-12T11:37:22.938Z,1023.42
2022-10-12T11:38:27.155Z,1023.42
2022-10-12T11:39:31.555Z,1023.41
2022-10-12T11:41:02.571Z,1023.42
2022-10-12T11:41:52.526Z,1023.42
2022-10-12T11:42:46.505Z,1023.43
2022-10-12T11:43:50.901Z,1023.44
2022-10-12T11:44:55.100Z,1023.44
2022-10-12T11:45:59.433Z,1023.44
2022-10-12T11:47:03.732Z,1023.45
2022-10-12T11:48:08.084Z,1023.45
2022-10-12T11:49:12.362Z,1023.45
2022-10-12T11:50:16.609Z,1023.43
2022-10-12T11:51:21.029Z,1023.43
2022-10-12T11:52:28.958Z,1023.41
2022-10-12T11:53:29.588Z,1023.39
2022-10-12T11:54:33.850Z,1023.39
2022-10-12T11:55:38.207Z,1023.38
2022-10-12T11:56:42.625Z,1023.34
2022-10-12T11:57:46.925Z,1023.34
2022-10-12T11:59:06.770Z,1023.30
2022-10-12T11:59:55.598Z,1023.30
2022-10-12T12:00:59.830Z,1023.29
2022-10-12T12:02:04.189Z,1023.27
2022-10-12T12:03:08.581Z,1023.32
2022-10-12T12:04:40.058Z,1023.32
2022-10-12T12:05:17.358Z,1023.32
2022-10-12T12:06:21.341Z,1023.31
2022-10-12T12:07:25.651Z,1023.31
2022-10-12T12:08:29.954Z,1023.31
2022-10-12T12:09:34.258Z,1023.28
2022-10-12T12:10:38.556Z,1023.27
2022-10-12T12:11:42.820Z,1023.26
2022-10-12T12:12:47.231Z,1023.26
2022-10-12T12:13:51.413Z,1023.26
2022-10-12T12:14:55.744Z,1023.23
2022-10-12T12:16:00.164Z,1023.22
2022-10-12T12:17:04.449Z,1023.22
2022-10-12T12:18:08.730Z,1023.19
2022-10-12T12:19:13.065Z,1023.20
2022-10-12T12:20:17.335Z,1023.20
2022-10-12T12:21:21.689Z,1023.19
2022-10-12T12:22:25.940Z,1023.19
2022-10-12T12:23:30.229Z,1023.19
2022-10-12T12:24:34.535Z,1023.17
2022-10-12T12:25:38.846Z,1023.18
2022-10-12T12:26:43.187Z,1023.19
2022-10-12T12:27:47.490Z,1023.16
2022-10-12T12:28:54.863Z,1023.15
2022-10-12T12:29:58.152Z,1023.15
2022-10-12T12:31:02.463Z,1023.14
2022-10-12T12:32:06.836Z,1023.13
2022-10-12T12:33:11.221Z,1023.07
2022-10-12T12:34:15.564Z,1023.08
2022-10-12T12:35:19.845Z,1023.02
2022-10-12T12:36:24.129Z,1022.97
2022-10-12T12:37:28.479Z,1022.96
2022-10-12T12:38:32.800Z,1022.91
2022-10-12T12:39:37.269Z,1022.88
2022-10-12T12:40:41.680Z,1022.89
2022-10-12T12:41:51.989Z,1022.88
2022-10-12T12:42:50.210Z,1022.85
2022-10-12T12:43:54.668Z,1022.81
2022-10-12T12:44:59.066Z,1022.80
2022-10-12T12:46:03.328Z,1022.78
2022-10-12T12:47:32.648Z,1022.76
2022-10-12T12:48:12.038Z,1022.76
2022-10-12T12:49:16.323Z,1022.73
2022-10-12T12:50:20.659Z,1022.69
2022-10-12T12:51:25.006Z,1022.64
2022-10-12T12:52:29.318Z,1022.63
2022-10-12T12:53:33.628Z,1022.63
2022-10-12T12:54:37.978Z,1022.62
2022-10-12T12:55:42.386Z,1022.57
2022-10-12T12:56:46.791Z,1022.57
2022-10-12T12:57:51.060Z,1022.52
2022-10-12T12:58:55.386Z,1022.51
2022-10-12T12:59:59.826Z,1022.49